Weather reports worldwide

Advertisment
Pristina, Kosovo (13481): temperature & dewpoint: 16.09.2018 15:00:00 - 22.09.2018 15:00:00 (CEST)Pristina, Kosovo (13481): wind speed: 16.09.2018 15:00:00 - 22.09.2018 15:00:00 (CEST)Pristina, Kosovo (13481): wind direction: 16.09.2018 15:00:00 - 22.09.2018 15:00:00 (CEST)Pristina, Kosovo (13481): visibility: 16.09.2018 15:00:00 - 22.09.2018 15:00:00 (CEST)
Date & Time tt [°C] td [°C] ff [km/h] ff [kn] dd vv [km]
22.09.2018 15:00:00 28,0 9,0 4 2 - 10
22.09.2018 14:00:00 28,0 10,0 4 2 - 10
22.09.2018 13:00:00 26,0 11,0 4 2 - 10
22.09.2018 12:00:00 25,0 10,0 5 3 - 10
22.09.2018 11:00:00 22,0 10,0 4 2 - 10
22.09.2018 10:00:00 18,0 10,0 4 2 - 10
22.09.2018 09:00:00 15,0 10,0 4 2 - 10
22.09.2018 08:00:00 13,0 9,0 0 0 N 10
22.09.2018 07:00:00 10,0 8,0 0 0 N 10
22.09.2018 06:00:00 11,0 8,0 0 0 N 10
22.09.2018 05:00:00 10,0 8,0 4 2 - 10
22.09.2018 04:00:00 10,0 7,0 2 1 - 10
22.09.2018 03:00:00 11,0 8,0 2 1 - 10
22.09.2018 02:00:00 12,0 8,0 4 2 - 10
22.09.2018 01:00:00 12,0 8,0 2 1 - 10
22.09.2018 00:00:00 14,0 9,0 4 2 - 10
21.09.2018 23:00:00 15,0 9,0 0 0 N 10
21.09.2018 22:00:00 15,0 9,0 0 0 N 10
21.09.2018 21:00:00 17,0 9,0 4 2 - 10
21.09.2018 20:00:00 18,0 10,0 5 3 - 10
21.09.2018 19:00:00 21,0 10,0 5 3 - 10
21.09.2018 18:00:00 25,0 9,0 2 1 - 10
21.09.2018 17:00:00 26,0 6,0 0 0 N 10
21.09.2018 16:00:00 27,0 6,0 5 3 - 10
21.09.2018 15:00:00 26,0 6,0 5 3 - 10
21.09.2018 14:00:00 25,0 8,0 5 3 - 10
21.09.2018 13:00:00 23,0 6,0 2 1 - 10
21.09.2018 12:00:00 22,0 7,0 4 2 - 10
21.09.2018 11:00:00 19,0 8,0 2 1 - 10
21.09.2018 10:00:00 16,0 8,0 2 1 - 10
21.09.2018 09:00:00 14,0 8,0 2 1 - 10
21.09.2018 08:00:00 12,0 7,0 2 1 - 10
21.09.2018 07:00:00 10,0 6,0 2 1 - 8
21.09.2018 06:00:00 10,0 6,0 0 0 N 10
21.09.2018 05:00:00 10,0 6,0 0 0 N 10
21.09.2018 04:00:00 11,0 6,0 0 0 N 10
21.09.2018 03:00:00 12,0 7,0 0 0 N 10
21.09.2018 02:00:00 14,0 7,0 5 3 - 10
21.09.2018 01:00:00 13,0 7,0 0 0 N 10
21.09.2018 00:00:00 15,0 7,0 2 1 - 10
20.09.2018 23:00:00 15,0 7,0 4 2 - 10
20.09.2018 22:00:00 17,0 7,0 9 5 WNW 10
20.09.2018 21:00:00 18,0 7,0 8 4 WNW 10
20.09.2018 20:00:00 21,0 6,0 13 7 NNW 10
20.09.2018 19:00:00 20,0 8,0 9 5 N 10
20.09.2018 18:00:00 25,0 7,0 18 10 NNE 10
20.09.2018 17:00:00 26,0 7,0 21 11 NNE 10
20.09.2018 16:00:00 27,0 7,0 18 10 NNE 10
20.09.2018 15:00:00 27,0 8,0 8 4 ENE 10
20.09.2018 14:00:00 26,0 8,0 5 3 - 10
20.09.2018 13:00:00 25,0 8,0 4 2 - 10
20.09.2018 12:00:00 23,0 9,0 5 3 - 10
20.09.2018 11:00:00 21,0 9,0 8 4 NNE 10
20.09.2018 10:00:00 18,0 9,0 5 3 - 10
20.09.2018 09:00:00 16,0 9,0 0 0 N 10
20.09.2018 08:00:00 12,0 9,0 2 1 - 8
20.09.2018 07:00:00 9,0 6,0 4 2 - 5
20.09.2018 06:00:00 10,0 7,0 2 1 - 10
20.09.2018 05:00:00 10,0 7,0 0 0 N 10
20.09.2018 04:00:00 12,0 8,0 5 3 - 10
20.09.2018 03:00:00 11,0 7,0 2 1 - 10
20.09.2018 02:00:00 13,0 8,0 4 2 - 10
20.09.2018 01:00:00 14,0 9,0 4 2 - 10
20.09.2018 00:00:00 15,0 9,0 2 1 - 10
19.09.2018 23:00:00 18,0 9,0 11 6 NW 10
19.09.2018 22:00:00 17,0 9,0 4 2 - 10
19.09.2018 21:00:00 20,0 8,0 4 2 - 10
19.09.2018 20:00:00 20,0 8,0 5 3 - 10
19.09.2018 19:00:00 21,0 11,0 4 2 - 10
19.09.2018 18:00:00 26,0 9,0 5 3 - 10
19.09.2018 17:00:00 27,0 9,0 5 3 - 10
19.09.2018 16:00:00 27,0 9,0 4 2 - 10
19.09.2018 15:00:00 27,0 10,0 5 3 - 10
19.09.2018 14:00:00 26,0 11,0 5 3 - 10
19.09.2018 13:00:00 25,0 12,0 8 4 SE 10
19.09.2018 12:00:00 24,0 13,0 9 5 SSE 10
19.09.2018 11:00:00 21,0 13,0 9 5 S 10
19.09.2018 10:00:00 19,0 11,0 4 2 - 10
19.09.2018 09:00:00 16,0 11,0 2 1 - 7
19.09.2018 08:00:00 13,0 10,0 2 1 - 4,0
19.09.2018 07:00:00 11,0 9,0 0 0 N 2,0
19.09.2018 06:00:00 11,0 8,0 2 1 - 6
19.09.2018 05:00:00 12,0 9,0 0 0 N 7
19.09.2018 04:00:00 11,0 8,0 2 1 - 10
19.09.2018 03:00:00 12,0 9,0 5 3 - 10
19.09.2018 02:00:00 12,0 9,0 4 2 - 10
19.09.2018 01:00:00 13,0 10,0 2 1 - 10
19.09.2018 00:00:00 15,0 10,0 4 2 - 10
18.09.2018 23:00:00 15,0 10,0 0 0 N 10
18.09.2018 22:00:00 16,0 10,0 2 1 - 10
18.09.2018 21:00:00 18,0 10,0 2 1 - 10
18.09.2018 20:00:00 19,0 11,0 0 0 N 10
18.09.2018 19:00:00 22,0 11,0 4 2 - 10
18.09.2018 18:00:00 25,0 10,0 5 3 - 10
18.09.2018 17:00:00 26,0 9,0 8 4 ESE 10
18.09.2018 16:00:00 26,0 9,0 5 3 - 10
18.09.2018 15:00:00 27,0 10,0 4 2 - 10
18.09.2018 14:00:00 25,0 12,0 5 3 - 10
18.09.2018 13:00:00 23,0 11,0 9 5 SSE 10
18.09.2018 12:00:00 21,0 11,0 8 4 SSW 10
18.09.2018 11:00:00 18,0 10,0 5 3 - 10
18.09.2018 10:00:00 16,0 9,0 2 1 - 10
18.09.2018 09:00:00 14,0 9,0 2 1 - 10
18.09.2018 08:00:00 12,0 8,0 0 0 N 10
18.09.2018 07:00:00 9,0 6,0 4 2 - 10
18.09.2018 06:00:00 10,0 6,0 0 0 N 10
18.09.2018 05:00:00 10,0 6,0 0 0 N 10
18.09.2018 04:00:00 11,0 7,0 4 2 - 10
18.09.2018 03:00:00 13,0 7,0 0 0 N 10
18.09.2018 02:00:00 13,0 7,0 5 3 - 10
18.09.2018 01:00:00 14,0 7,0 4 2 - 10
18.09.2018 00:00:00 15,0 8,0 0 0 N 10
17.09.2018 23:00:00 16,0 8,0 11 6 N 10
17.09.2018 22:00:00 18,0 7,0 9 5 NNW 10
17.09.2018 21:00:00 18,0 8,0 16 9 N 10
17.09.2018 20:00:00 17,0 9,0 4 2 - 10
17.09.2018 19:00:00 19,0 9,0 9 5 NNW 10
17.09.2018 18:00:00 24,0 9,0 2 1 - 10
17.09.2018 17:00:00 25,0 7,0 8 4 S 10
17.09.2018 16:00:00 25,0 6,0 8 4 SE 10
17.09.2018 15:00:00 25,0 6,0 2 1 - 10
17.09.2018 14:00:00 24,0 7,0 5 3 - 10
17.09.2018 13:00:00 23,0 7,0 5 3 - 10
17.09.2018 12:00:00 23,0 6,0 4 2 - 10
17.09.2018 11:00:00 20,0 8,0 2 1 - 10
17.09.2018 10:00:00 16,0 9,0 0 0 N 10
17.09.2018 09:00:00 14,0 8,0 2 1 - 10
17.09.2018 08:00:00 12,0 7,0 0 0 N 8
17.09.2018 07:00:00 8,0 5,0 0 0 N 7
17.09.2018 06:00:00 8,0 5,0 0 0 N 10
17.09.2018 05:00:00 9,0 5,0 0 0 N 10
17.09.2018 04:00:00 9,0 6,0 0 0 N 10
17.09.2018 03:00:00 10,0 6,0 4 2 - 10
17.09.2018 02:00:00 10,0 6,0 0 0 N 10
17.09.2018 01:00:00 11,0 7,0 5 3 - 10
17.09.2018 00:00:00 13,0 7,0 0 0 N 10
16.09.2018 23:00:00 14,0 8,0 4 2 - 10
16.09.2018 22:00:00 16,0 7,0 8 4 WNW 10
16.09.2018 21:00:00 16,0 7,0 8 4 NW 10
16.09.2018 20:00:00 18,0 7,0 9 5 NW 10
16.09.2018 19:00:00 19,0 7,0 13 7 N 10
16.09.2018 18:00:00 23,0 7,0 18 10 NE 10
16.09.2018 17:00:00 25,0 6,0 22 12 NNE 10
16.09.2018 16:00:00 25,0 7,0 11 6 N 10
16.09.2018 15:00:00 26,0 6,0 5 3 - 10

tt = temperature
td = dewpoint
ff = wind speed
dd = wind direction
vv = visibility

Next stations